Time;durP1;ratioP1;P1;durP2;ratioP2;P2;SDS_P1;SDS_P2;PMS_P1;PMS_P2;Temp;Humidity;BMP_temperature;BMP_pressure;BME280_temperature;BME280_humidity;BME280_pressure;Samples;Min_cycle;Max_cycle;Signal;HPM_P1;HPM_P2
2024/04/15 00:02:10;;;;;;;9.45;3.25;;;;;;;12.86;95.19;101420.13;5523597;25;20051;-74
2024/04/15 00:05:00;;;;;;;9.65;3.50;;;;;;;12.86;94.95;101415.47;5517624;26;19997;-74
2024/04/15 00:07:51;;;;;;;11.70;3.45;;;;;;;12.86;94.50;101417.41;5522680;26;20117;-73
2024/04/15 00:10:40;;;;;;;11.35;3.60;;;;;;;12.82;94.29;101419.88;5519604;25;20016;-74
2024/04/15 00:13:29;;;;;;;9.48;3.40;;;;;;;12.82;94.53;101421.75;5523928;26;20096;-74
2024/04/15 00:16:17;;;;;;;9.38;3.35;;;;;;;12.78;94.57;101408.63;5527470;26;19997;-74
2024/04/15 00:19:05;;;;;;;9.23;3.50;;;;;;;12.73;94.55;101416.00;5475435;26;20009;-74
2024/04/15 00:21:53;;;;;;;9.10;3.40;;;;;;;12.72;94.30;101401.50;5519701;26;20003;-74
2024/04/15 00:24:42;;;;;;;10.18;4.07;;;;;;;12.70;94.58;101395.50;5505168;26;20001;-74
2024/04/15 00:27:30;;;;;;;9.88;3.47;;;;;;;12.70;94.16;101381.81;5499147;26;19997;-74
2024/04/15 00:30:18;;;;;;;13.55;4.32;;;;;;;12.61;94.22;101375.22;5500992;26;20012;-77
2024/04/15 00:33:06;;;;;;;8.85;3.80;;;;;;;12.55;94.44;101368.06;5498291;26;20002;-72
2024/04/15 00:35:56;;;;;;;13.10;4.07;;;;;;;12.55;93.41;101366.19;5476109;26;19998;-74
2024/04/15 00:38:44;;;;;;;11.25;4.38;;;;;;;12.55;93.22;101360.72;5526331;26;20001;-72
2024/04/15 00:41:32;;;;;;;9.73;3.67;;;;;;;12.53;92.39;101354.69;5493605;25;20013;-74
2024/04/15 00:44:20;;;;;;;13.40;3.83;;;;;;;12.48;91.77;101359.31;5450575;26;20006;-74
2024/04/15 00:47:09;;;;;;;8.90;3.20;;;;;;;12.43;91.82;101343.69;5498979;26;20012;-75
2024/04/15 00:49:57;;;;;;;8.32;4.10;;;;;;;12.43;91.13;101334.69;5522691;26;20018;-75
2024/04/15 00:52:46;;;;;;;10.77;4.22;;;;;;;12.42;90.21;101327.59;5522071;26;20001;-74
2024/04/15 00:55:35;;;;;;;10.63;4.30;;;;;;;12.36;89.96;101324.84;5472573;26;20029;-73
2024/04/15 00:58:25;;;;;;;11.25;4.45;;;;;;;12.33;89.90;101319.06;5499901;26;20001;-73
2024/04/15 01:01:14;;;;;;;12.65;4.60;;;;;;;12.31;89.80;101316.63;5524346;26;20007;-74
2024/04/15 01:04:03;;;;;;;10.05;4.60;;;;;;;12.30;89.77;101320.44;5514066;26;20081;-74
2024/04/15 01:06:54;;;;;;;13.13;5.20;;;;;;;12.23;90.30;101303.47;5503218;26;20016;-75
2024/04/15 01:09:42;;;;;;;10.32;4.53;;;;;;;12.23;89.76;101308.13;5500877;26;20016;-74
2024/04/15 01:12:31;;;;;;;11.00;4.53;;;;;;;12.22;89.46;101304.56;5577791;25;19997;-73
2024/04/15 01:15:19;;;;;;;11.00;4.70;;;;;;;12.15;90.12;101295.78;5473066;26;20412;-73
2024/04/15 01:18:07;;;;;;;11.57;4.40;;;;;;;12.12;90.97;101299.03;5526653;26;20001;-74
2024/04/15 01:20:59;;;;;;;10.75;4.93;;;;;;;12.14;90.61;101291.41;5474052;26;20069;-74
2024/04/15 01:23:47;;;;;;;9.88;4.45;;;;;;;12.09;91.28;101286.75;5524707;26;20005;-74
2024/04/15 01:26:35;;;;;;;12.75;5.15;;;;;;;12.07;91.56;101285.38;5523580;26;20020;-74
2024/04/15 01:29:23;;;;;;;12.25;5.18;;;;;;;12.06;91.95;101289.19;5522189;26;20005;-74
2024/04/15 01:32:12;;;;;;;14.00;5.40;;;;;;;12.06;92.42;101289.19;5499096;26;20440;-74
2024/04/15 01:35:00;;;;;;;10.60;4.60;;;;;;;12.07;92.83;101288.09;5518185;26;20449;-74
2024/04/15 01:37:49;;;;;;;11.90;5.40;;;;;;;12.02;92.99;101286.16;5524448;26;20001;-74
2024/04/15 01:40:37;;;;;;;11.27;5.07;;;;;;;11.99;93.58;101288.63;5524828;26;20009;-74
2024/04/15 01:43:25;;;;;;;11.43;5.60;;;;;;;11.97;94.02;101288.88;5497705;26;20473;-75
2024/04/15 01:46:13;;;;;;;10.88;4.70;;;;;;;11.99;94.13;101277.69;5522395;26;20001;-74
2024/04/15 01:49:02;;;;;;;12.90;5.22;;;;;;;12.01;94.42;101275.53;5524326;26;20401;-75
2024/04/15 01:51:50;;;;;;;14.02;5.25;;;;;;;11.98;94.90;101278.75;5486649;26;20091;-74
2024/04/15 01:54:39;;;;;;;12.68;4.88;;;;;;;11.97;95.25;101271.69;5488234;26;19994;-74
2024/04/15 01:57:27;;;;;;;14.35;5.55;;;;;;;12.00;94.33;101265.66;5473087;26;20012;-74
2024/04/15 02:00:15;;;;;;;12.68;5.00;;;;;;;12.02;94.48;101260.78;5499914;26;20063;-74
2024/04/15 02:03:03;;;;;;;11.95;5.07;;;;;;;11.99;94.65;101253.94;5473915;25;20441;-74
2024/04/15 02:05:52;;;;;;;11.20;5.32;;;;;;;11.95;93.92;101247.34;5532200;25;20005;-74
2024/04/15 02:08:40;;;;;;;12.32;5.20;;;;;;;11.88;93.70;101246.78;5534493;25;20344;-74
2024/04/15 02:11:28;;;;;;;11.27;5.07;;;;;;;11.89;93.36;101238.31;5536185;25;20068;-74
2024/04/15 02:14:16;;;;;;;9.85;4.63;;;;;;;11.90;92.82;101226.31;5500120;25;20000;-73
2024/04/15 02:17:04;;;;;;;14.80;5.22;;;;;;;11.90;92.72;101230.94;5559417;25;20354;-74
2024/04/15 02:19:52;;;;;;;11.10;5.22;;;;;;;11.88;91.91;101223.03;5533614;25;20448;-74
2024/04/15 02:22:40;;;;;;;13.70;4.82;;;;;;;11.82;92.28;101213.16;5485010;25;20016;-73
2024/04/15 02:25:28;;;;;;;16.95;5.80;;;;;;;11.84;91.97;101205.50;5508871;25;20013;-74
2024/04/15 02:28:16;;;;;;;10.60;4.72;;;;;;;11.85;91.63;101214.53;5488937;25;19993;-73
2024/04/15 02:31:04;;;;;;;11.27;4.65;;;;;;;11.85;91.32;101207.13;5559326;25;20017;-73
2024/04/15 02:33:53;;;;;;;13.50;5.18;;;;;;;11.79;91.49;101205.50;5561603;25;20007;-74
2024/04/15 02:36:41;;;;;;;11.05;4.32;;;;;;;11.77;91.81;101196.75;5506013;25;19997;-74
2024/04/15 02:39:29;;;;;;;14.55;5.43;;;;;;;11.79;91.07;101196.50;5558195;25;19997;-74
2024/04/15 02:42:17;;;;;;;10.00;4.03;;;;;;;11.75;91.39;101190.72;5559187;25;20068;-73
2024/04/15 02:45:05;;;;;;;12.50;4.28;;;;;;;11.73;91.66;101196.44;5510114;25;19997;-74
2024/04/15 02:47:54;;;;;;;11.88;4.68;;;;;;;11.68;91.88;101188.25;5532329;25;20449;-74
2024/04/15 02:50:42;;;;;;;14.02;4.57;;;;;;;11.70;92.12;101185.25;5566666;25;20000;-74
2024/04/15 02:53:32;;;;;;;12.65;4.80;;;;;;;11.70;91.25;101187.97;5599192;25;20405;-74
2024/04/15 02:56:20;;;;;;;10.38;4.00;;;;;;;11.69;90.48;101186.34;5544227;25;20006;-74
2024/04/15 02:59:08;;;;;;;13.20;4.45;;;;;;;11.61;90.74;101181.38;5508528;25;20347;-74
2024/04/15 03:01:57;;;;;;;12.10;4.35;;;;;;;11.57;90.79;101181.09;5560708;25;19997;-74
2024/04/15 03:04:45;;;;;;;9.95;4.15;;;;;;;11.55;90.87;101177.81;5533026;25;20068;-72
2024/04/15 03:07:33;;;;;;;10.98;4.05;;;;;;;11.54;90.53;101187.06;5531219;25;20004;-72
2024/04/15 03:10:21;;;;;;;14.93;4.10;;;;;;;11.50;90.46;101169.63;5499116;26;20002;-73
2024/04/15 03:13:09;;;;;;;11.70;4.30;;;;;;;11.50;90.55;101173.16;5523342;26;20368;-72
2024/04/15 03:15:58;;;;;;;11.25;4.07;;;;;;;11.46;90.27;101168.50;5475396;26;20005;-72
2024/04/15 03:18:59;;;;;;;11.55;3.88;;;;;;;11.45;89.81;101167.69;5515408;25;19993;-72
2024/04/15 03:21:48;;;;;;;9.65;3.75;;;;;;;11.45;89.55;101155.94;5561953;25;20381;-72
2024/04/15 03:24:37;;;;;;;9.75;3.35;;;;;;;11.33;89.92;101153.44;5535497;25;20016;-72
2024/04/15 03:27:25;;;;;;;9.95;3.60;;;;;;;11.27;90.56;101149.84;5535150;25;19997;-72
2024/04/15 03:30:13;;;;;;;11.65;3.22;;;;;;;11.32;90.50;101151.78;5508306;25;20072;-71
2024/04/15 03:33:01;;;;;;;8.88;3.22;;;;;;;11.28;90.15;101137.00;5507208;25;20012;-71
2024/04/15 03:35:50;;;;;;;12.80;3.60;;;;;;;11.30;90.86;101132.13;5531605;25;20431;-71
2024/04/15 03:38:38;;;;;;;13.82;3.45;;;;;;;11.32;90.50;101131.88;5558456;25;20001;-73
2024/04/15 03:41:26;;;;;;;17.00;4.00;;;;;;;11.32;90.14;101124.50;5434590;25;20020;-74
2024/04/15 03:44:14;;;;;;;12.23;3.50;;;;;;;11.31;90.31;101117.41;5558790;25;20054;-73
2024/04/15 03:47:03;;;;;;;10.25;3.30;;;;;;;11.27;90.72;101117.09;5545454;25;20274;-71
2024/04/15 03:49:51;;;;;;;10.63;3.50;;;;;;;11.26;90.84;101109.22;5575672;25;20037;-71
2024/04/15 03:52:39;;;;;;;10.65;3.38;;;;;;;11.26;90.53;101111.94;5563759;25;20336;-72
2024/04/15 03:55:27;;;;;;;12.43;3.80;;;;;;;11.18;90.90;101094.13;5498903;26;20023;-72
2024/04/15 03:58:16;;;;;;;9.70;3.38;;;;;;;11.18;91.00;101090.59;5538865;25;20001;-72
2024/04/15 04:01:04;;;;;;;9.25;3.15;;;;;;;11.16;90.98;101092.75;5557169;25;20000;-72
2024/04/15 04:03:53;;;;;;;13.52;3.55;;;;;;;11.19;91.31;101086.81;5554312;25;20056;-73
2024/04/15 04:06:41;;;;;;;10.40;3.10;;;;;;;11.15;91.11;101085.69;5563892;25;20004;-71
2024/04/15 04:09:30;;;;;;;9.48;3.00;;;;;;;11.11;91.64;101084.56;5562057;25;20400;-72
2024/04/15 04:12:19;;;;;;;12.20;3.67;;;;;;;11.07;91.98;101079.66;5509479;25;20076;-71
2024/04/15 04:15:07;;;;;;;11.73;3.10;;;;;;;11.07;92.44;101076.09;5561563;25;20016;-71
2024/04/15 04:17:55;;;;;;;10.13;3.28;;;;;;;11.00;92.13;101073.63;5540158;25;20003;-72
2024/04/15 04:20:43;;;;;;;10.77;3.17;;;;;;;11.02;92.99;101068.72;5546402;25;20358;-74
2024/04/15 04:23:31;;;;;;;13.23;3.75;;;;;;;10.99;93.44;101066.53;5537017;25;20005;-71
2024/04/15 04:26:19;;;;;;;10.82;3.22;;;;;;;11.02;92.90;101063.28;5535760;25;20004;-73
2024/04/15 04:29:08;;;;;;;14.23;4.22;;;;;;;11.01;93.08;101066.25;5520362;25;20011;-73
2024/04/15 04:31:56;;;;;;;10.48;3.63;;;;;;;11.02;93.22;101057.81;5559765;25;20004;-73
2024/04/15 04:34:44;;;;;;;10.10;3.10;;;;;;;11.02;92.97;101049.63;5533956;25;20045;-72
2024/04/15 04:37:32;;;;;;;11.77;3.45;;;;;;;10.98;93.89;101042.25;5535668;25;20001;-73
2024/04/15 04:40:20;;;;;;;12.07;3.58;;;;;;;10.94;94.13;101033.75;5509740;25;20001;-73
2024/04/15 04:43:08;;;;;;;10.70;3.92;;;;;;;10.95;94.11;101040.88;5504314;25;20001;-69
2024/04/15 04:45:56;;;;;;;9.63;3.30;;;;;;;10.93;94.38;101029.41;5560735;25;20072;-70
2024/04/15 04:48:44;;;;;;;10.80;3.33;;;;;;;10.91;94.63;101023.41;5510899;25;20072;-71
2024/04/15 04:51:32;;;;;;;11.30;3.58;;;;;;;10.91;94.98;101030.75;5555343;25;20029;-72
2024/04/15 04:54:21;;;;;;;10.25;3.28;;;;;;;10.92;95.60;101027.78;5511704;25;20007;-71
2024/04/15 04:57:09;;;;;;;12.88;3.25;;;;;;;10.89;95.17;101028.28;5559863;25;20023;-71
2024/04/15 04:59:57;;;;;;;10.43;3.28;;;;;;;10.90;95.27;101029.13;5510010;25;20000;-71
2024/04/15 05:02:46;;;;;;;11.57;3.72;;;;;;;10.84;96.04;101020.91;5521608;25;20004;-71
2024/04/15 05:05:35;;;;;;;13.18;3.55;;;;;;;10.82;96.20;101019.53;5566770;25;20343;-72
2024/04/15 05:08:23;;;;;;;11.27;3.78;;;;;;;10.78;96.93;101015.72;5574328;25;19996;-71
2024/04/15 05:11:11;;;;;;;13.30;3.25;;;;;;;10.82;97.01;101008.63;5522486;25;20000;-71
2024/04/15 05:14:00;;;;;;;12.70;3.75;;;;;;;10.81;97.18;101010.53;5513895;25;20421;-70
2024/04/15 05:16:48;;;;;;;15.98;3.38;;;;;;;10.86;97.10;101007.84;5537018;25;20004;-69
2024/04/15 05:19:36;;;;;;;11.15;3.58;;;;;;;10.85;96.91;100999.94;5535516;25;19997;-69
2024/04/15 05:22:24;;;;;;;13.52;3.30;;;;;;;10.85;96.84;100994.50;5507405;25;20015;-68
2024/04/15 05:25:12;;;;;;;11.10;3.25;;;;;;;10.83;96.75;100993.94;5504266;25;20009;-69
2024/04/15 05:28:03;;;;;;;13.40;3.58;;;;;;;10.77;97.65;100997.69;5536335;25;20080;-69
2024/04/15 05:30:56;;;;;;;10.85;3.28;;;;;;;10.73;97.17;100993.88;5531266;25;20001;-69
2024/04/15 05:33:44;;;;;;;11.68;3.60;;;;;;;10.67;98.33;100987.56;5506533;25;20012;-69
2024/04/15 05:36:33;;;;;;;11.82;3.47;;;;;;;10.67;98.05;100987.56;5533697;25;20011;-68
2024/04/15 05:39:21;;;;;;;13.00;3.78;;;;;;;10.64;98.05;100991.66;5506917;25;20037;-68
2024/04/15 05:42:10;;;;;;;11.32;3.58;;;;;;;10.63;98.86;100987.28;5531445;25;20001;-69
2024/04/15 05:44:58;;;;;;;12.52;3.65;;;;;;;10.64;98.53;100988.09;5507432;25;20007;-69
2024/04/15 05:47:46;;;;;;;11.75;3.38;;;;;;;10.56;99.81;100978.53;5561676;25;20010;-70
2024/04/15 05:50:35;;;;;;;12.32;3.55;;;;;;;10.59;99.88;100969.81;5517159;25;20007;-70
2024/04/15 05:53:23;;;;;;;13.73;3.83;;;;;;;10.64;99.82;100967.13;5512701;25;20078;-68
2024/04/15 05:56:11;;;;;;;15.85;3.92;;;;;;;10.82;100.00;100970.47;5500711;25;20037;-69
2024/04/15 05:59:00;;;;;;;13.13;3.80;;;;;;;10.79;100.00;100979.19;4747154;25;10000716;-69
2024/04/15 06:01:48;;;;;;;17.83;4.43;;;;;;;10.71;100.00;100969.63;5544462;25;20063;-69
2024/04/15 06:04:37;;;;;;;17.90;4.10;;;;;;;10.70;100.00;100973.41;5542247;25;20024;-69
2024/04/15 06:07:26;;;;;;;10.55;3.67;;;;;;;10.69;100.00;100966.34;5500318;25;20821;-71
2024/04/15 06:10:14;;;;;;;15.65;4.00;;;;;;;10.65;100.00;100968.78;5512805;25;20027;-70
2024/04/15 06:13:02;;;;;;;11.13;4.10;;;;;;;10.70;100.00;100967.97;5523383;25;20042;-69
2024/04/15 06:15:51;;;;;;;14.55;3.65;;;;;;;10.65;100.00;100968.78;5493753;26;20074;-71
2024/04/15 06:18:39;;;;;;;11.35;3.40;;;;;;;10.72;100.00;100954.88;5544951;25;20419;-70
2024/04/15 06:21:27;;;;;;;16.98;3.95;;;;;;;10.78;100.00;100948.38;5525394;25;20030;-70
2024/04/15 06:24:15;;;;;;;14.60;4.20;;;;;;;10.75;100.00;100940.75;5484869;26;20016;-71
2024/04/15 06:27:03;;;;;;;11.25;3.33;;;;;;;10.77;100.00;100951.38;5509329;25;20011;-71
2024/04/15 06:29:51;;;;;;;12.75;3.95;;;;;;;10.74;100.00;100947.28;5513960;25;20502;-70
2024/04/15 06:32:39;;;;;;;15.07;3.97;;;;;;;10.74;100.00;100947.28;5568490;25;20076;-70
2024/04/15 06:35:28;;;;;;;11.40;3.47;;;;;;;10.82;100.00;100932.31;5555656;25;20001;-70
2024/04/15 06:38:16;;;;;;;12.73;3.72;;;;;;;10.85;100.00;100931.78;5502855;25;20415;-70
2024/04/15 06:41:04;;;;;;;13.18;3.40;;;;;;;10.85;100.00;100926.34;5527116;25;20095;-70
2024/04/15 06:43:54;;;;;;;12.43;3.75;;;;;;;10.86;99.72;100914.34;5591172;25;20000;-70
2024/04/15 06:46:45;;;;;;;12.98;3.90;;;;;;;10.91;99.38;100914.34;5490796;25;20008;-70
2024/04/15 06:49:33;;;;;;;12.95;3.53;;;;;;;10.95;100.00;100912.75;5567542;25;20000;-70
2024/04/15 06:52:21;;;;;;;12.65;3.90;;;;;;;10.95;100.00;100910.00;5567496;25;20013;-70
2024/04/15 06:55:13;;;;;;;12.95;4.10;;;;;;;10.99;100.00;100902.09;5529598;25;20001;-70
2024/04/15 06:58:02;;;;;;;10.85;3.30;;;;;;;10.95;99.65;100901.84;5527902;25;20378;-70
2024/04/15 07:00:50;;;;;;;12.10;3.50;;;;;;;10.96;99.82;100887.09;5475747;25;20005;-70
2024/04/15 07:03:38;;;;;;;13.38;3.65;;;;;;;10.81;99.59;100876.97;5558545;25;20001;-70
2024/04/15 07:06:26;;;;;;;18.40;4.05;;;;;;;10.75;99.57;100877.22;5471628;26;20013;-72
2024/04/15 07:09:14;;;;;;;14.70;4.10;;;;;;;10.67;100.00;100864.94;5497032;26;20457;-72
2024/04/15 07:12:02;;;;;;;17.90;4.53;;;;;;;10.66;100.00;100864.13;5545564;25;20444;-72
2024/04/15 07:14:51;;;;;;;14.48;4.40;;;;;;;10.63;100.00;100867.41;5508269;25;20001;-71
2024/04/15 07:17:40;;;;;;;15.55;3.85;;;;;;;10.62;100.00;100860.28;5509228;25;20072;-70
2024/04/15 07:20:29;;;;;;;18.15;3.60;;;;;;;10.68;100.00;100852.13;5533224;25;20015;-70
2024/04/15 07:23:17;;;;;;;15.07;4.35;;;;;;;10.78;98.78;100853.00;5538747;25;19997;-70
2024/04/15 07:26:09;;;;;;;14.25;3.90;;;;;;;10.92;98.21;100842.41;5535085;25;20007;-70
2024/04/15 07:28:57;;;;;;;15.63;4.05;;;;;;;10.97;98.84;100826.06;5565924;25;20033;-70
2024/04/15 07:31:45;;;;;;;20.48;5.97;;;;;;;11.11;99.72;100828.22;5522893;25;20321;-69
2024/04/15 07:34:34;;;;;;;17.27;4.20;;;;;;;11.15;99.05;100819.25;5479284;25;20476;-69
2024/04/15 07:37:22;;;;;;;15.45;4.15;;;;;;;11.26;98.06;100815.44;5532232;25;19997;-68
2024/04/15 07:40:10;;;;;;;14.60;4.35;;;;;;;11.05;98.34;100814.59;5557951;25;20011;-72
2024/04/15 07:42:58;;;;;;;13.07;4.10;;;;;;;11.01;99.05;100802.59;5519166;25;20009;-70
2024/04/15 07:45:47;;;;;;;15.70;3.85;;;;;;;10.96;99.34;100799.88;5562204;25;20453;-70
2024/04/15 07:48:35;;;;;;;13.57;3.55;;;;;;;11.00;100.00;100789.25;5535806;25;20053;-69
2024/04/15 07:51:23;;;;;;;13.40;3.78;;;;;;;11.10;98.68;100783.78;5510411;25;20015;-69
2024/04/15 07:54:14;;;;;;;14.27;4.25;;;;;;;11.13;98.49;100777.78;5539277;25;20072;-70
2024/04/15 07:57:02;;;;;;;14.00;3.88;;;;;;;11.17;98.64;100767.16;5476026;26;20433;-70
2024/04/15 07:59:50;;;;;;;16.83;3.95;;;;;;;11.16;98.66;100760.91;5561770;25;20012;-70
2024/04/15 08:02:39;;;;;;;17.85;4.68;;;;;;;11.29;99.13;100756.78;5530913;25;20000;-71
2024/04/15 08:05:27;;;;;;;15.10;4.20;;;;;;;11.35;97.79;100758.41;5560481;25;20012;-69
2024/04/15 08:08:15;;;;;;;13.32;3.92;;;;;;;11.35;97.48;100744.75;5601285;25;19996;-71
2024/04/15 08:11:04;;;;;;;13.20;3.60;;;;;;;11.37;96.64;100749.97;5560218;25;19992;-68
2024/04/15 08:13:52;;;;;;;13.80;3.90;;;;;;;11.42;96.54;100748.03;5569677;25;20012;-70
2024/04/15 08:16:42;;;;;;;13.00;3.92;;;;;;;11.56;94.94;100744.75;5508769;25;19996;-70
2024/04/15 08:19:31;;;;;;;15.63;3.92;;;;;;;11.49;94.89;100742.28;5553490;25;20007;-73
2024/04/15 08:22:20;;;;;;;15.27;3.40;;;;;;;11.54;95.27;100731.38;5527312;25;20001;-69
2024/04/15 08:25:08;;;;;;;11.25;3.40;;;;;;;11.45;94.53;100731.13;5570622;25;20338;-70
2024/04/15 08:27:57;;;;;;;15.85;3.65;;;;;;;11.45;94.23;100713.94;5538309;25;20542;-69
2024/04/15 08:30:46;;;;;;;15.13;3.72;;;;;;;11.52;95.71;100701.66;5475290;26;20077;-71
2024/04/15 08:33:34;;;;;;;13.75;3.70;;;;;;;11.49;93.47;100704.09;5532085;26;19997;-70
2024/04/15 08:36:23;;;;;;;14.25;3.60;;;;;;;11.55;94.10;100691.28;5473993;26;20029;-70
2024/04/15 08:39:11;;;;;;;16.25;4.07;;;;;;;11.66;97.12;100682.75;5527402;26;20013;-70
2024/04/15 08:42:08;;;;;;;13.13;3.17;;;;;;;11.72;94.70;100678.91;5497637;26;20016;-70
2024/04/15 08:44:57;;;;;;;10.88;3.20;;;;;;;11.67;94.01;100675.41;5498435;26;20029;-70
2024/04/15 08:47:50;;;;;;;13.73;3.42;;;;;;;11.74;95.09;100662.28;5466605;25;20032;-70
2024/04/15 08:50:38;;;;;;;13.88;3.90;;;;;;;11.77;93.38;100649.97;5522943;25;20000;-69
2024/04/15 08:53:27;;;;;;;11.13;3.03;;;;;;;11.78;88.32;100654.31;5574781;25;20004;-71
2024/04/15 08:56:16;;;;;;;21.05;5.30;;;;;;;11.92;100.00;100645.28;5521058;25;20339;-70
2024/04/15 08:59:04;;;;;;;17.20;4.28;;;;;;;11.91;93.00;100638.19;5570280;25;20447;-70
2024/04/15 09:01:55;;;;;;;13.15;4.10;;;;;;;11.88;91.27;100636.03;5571144;25;20067;-70
2024/04/15 09:04:43;;;;;;;11.90;3.25;;;;;;;11.79;87.55;100637.69;5520646;25;19996;-70
2024/04/15 09:07:32;;;;;;;15.43;4.43;;;;;;;11.84;89.35;100626.72;5546683;25;20024;-70
2024/04/15 09:10:20;;;;;;;12.90;3.45;;;;;;;11.93;87.38;100602.44;5515375;25;20000;-70
2024/04/15 09:13:12;;;;;;;10.32;2.95;;;;;;;11.94;85.62;100613.03;5572448;25;20463;-71
2024/04/15 09:16:00;;;;;;;17.02;4.70;;;;;;;12.11;94.17;100587.28;5547751;25;20140;-70
2024/04/15 09:18:48;;;;;;;12.32;3.85;;;;;;;12.13;86.88;100583.16;5547761;25;20014;-69
2024/04/15 09:21:37;;;;;;;18.77;4.38;;;;;;;12.22;92.76;100569.72;5451860;26;20008;-70
2024/04/15 09:24:28;;;;;;;10.98;3.63;;;;;;;12.16;87.96;100565.38;5524922;26;20302;-70
2024/04/15 09:27:21;;;;;;;13.43;4.13;;;;;;;12.25;90.16;100566.41;5475753;26;20002;-70
2024/04/15 09:30:10;;;;;;;13.05;3.75;;;;;;;12.33;92.13;100557.59;5513141;25;19997;-70
2024/04/15 09:33:00;;;;;;;12.75;3.17;;;;;;;12.27;85.25;100547.00;5537124;25;20028;-70
2024/04/15 09:35:49;;;;;;;11.45;3.13;;;;;;;12.30;82.37;100549.16;5510156;25;20008;-70
2024/04/15 09:38:39;;;;;;;12.30;3.60;;;;;;;12.32;84.85;100525.13;5560235;25;20072;-70
2024/04/15 09:41:30;;;;;;;9.68;2.95;;;;;;;12.51;84.60;100536.16;5508904;25;20071;-70
2024/04/15 09:44:20;;;;;;;14.30;3.65;;;;;;;12.34;81.82;100515.53;5542128;25;19999;-71
2024/04/15 09:47:09;;;;;;;12.85;3.38;;;;;;;12.19;79.59;100502.00;5527777;25;20001;-69
2024/04/15 09:49:57;;;;;;;9.43;3.20;;;;;;;12.06;81.03;100499.94;5530353;25;20414;-70
2024/04/15 09:52:47;;;;;;;12.90;3.08;;;;;;;11.98;79.71;100495.91;5531377;25;20005;-70
2024/04/15 09:55:38;;;;;;;11.23;3.35;;;;;;;11.96;80.99;100483.63;5507331;25;20021;-69
2024/04/15 09:58:26;;;;;;;12.20;3.30;;;;;;;11.94;79.85;100476.53;5516935;26;20009;-69
2024/04/15 10:01:20;;;;;;;12.68;3.33;;;;;;;11.90;77.85;100472.72;5486721;25;20001;-70
2024/04/15 10:04:20;;;;;;;11.63;2.92;;;;;;;11.86;78.38;100460.75;5538741;25;20020;-73
2024/04/15 10:07:10;;;;;;;13.93;3.22;;;;;;;11.94;79.01;100443.78;5480606;25;20009;-70
2024/04/15 10:10:00;;;;;;;16.48;3.42;;;;;;;11.92;77.79;100435.03;5505684;25;20081;-70
2024/04/15 10:12:52;;;;;;;12.82;3.10;;;;;;;11.88;78.20;100422.25;5522378;25;20001;-70
2024/04/15 10:15:40;;;;;;;17.45;3.63;;;;;;;11.86;78.81;100408.06;5533035;25;20329;-71
2024/04/15 10:18:29;;;;;;;12.88;2.88;;;;;;;12.01;81.78;100399.75;5522800;26;19997;-71
2024/04/15 10:21:19;;;;;;;12.15;3.53;;;;;;;12.26;87.16;100393.19;5548835;25;20001;-71
2024/04/15 10:24:10;;;;;;;14.77;4.32;;;;;;;12.42;89.86;100377.47;5536012;25;20004;-71
2024/04/15 10:26:59;;;;;;;11.68;3.45;;;;;;;12.53;94.80;100378.97;5498153;25;20021;-71
2024/04/15 10:29:50;;;;;;;11.68;3.80;;;;;;;12.61;99.80;100372.03;5457946;25;20012;-70
2024/04/15 10:32:45;;;;;;;12.18;2.70;;;;;;;12.45;86.51;100362.41;5534554;25;20001;-70
2024/04/15 10:35:35;;;;;;;12.57;4.57;;;;;;;12.65;100.00;100345.75;5511845;25;20012;-70
2024/04/15 10:38:27;;;;;;;11.20;3.08;;;;;;;12.53;88.17;100340.72;5115224;25;9999985;-71
2024/04/15 10:41:21;;;;;;;13.15;3.60;;;;;;;12.49;92.91;100328.75;5511878;25;20001;-71
2024/04/15 10:44:09;;;;;;;9.05;3.28;;;;;;;12.60;100.00;100331.34;5528451;25;20012;-73
2024/04/15 10:46:58;;;;;;;12.52;3.65;;;;;;;12.77;100.00;100307.88;5494634;25;20132;-71
2024/04/15 10:49:49;;;;;;;13.18;3.35;;;;;;;12.64;100.00;100302.31;5529212;25;20088;-72
2024/04/15 10:52:37;;;;;;;11.55;3.92;;;;;;;12.64;100.00;100286.72;5478847;25;19997;-71
2024/04/15 10:55:27;;;;;;;9.90;3.33;;;;;;;12.69;100.00;100277.66;5510783;25;20012;-71
2024/04/15 10:58:16;;;;;;;11.98;3.05;;;;;;;12.52;100.00;100259.84;5522727;25;20504;-73
2024/04/15 11:01:05;;;;;;;12.07;3.55;;;;;;;12.81;100.00;100247.94;5509132;25;20000;-70
2024/04/15 11:03:54;;;;;;;10.77;2.95;;;;;;;12.69;100.00;100240.19;5509406;25;20000;-70
2024/04/15 11:06:43;;;;;;;9.25;2.60;;;;;;;12.46;100.00;100230.13;5509183;25;20001;-70
2024/04/15 11:09:32;;;;;;;9.13;2.90;;;;;;;12.49;100.00;100226.84;5536567;25;20011;-70
2024/04/15 11:12:21;;;;;;;11.60;3.33;;;;;;;12.29;100.00;100217.81;5561396;25;20001;-71
2024/04/15 11:15:10;;;;;;;11.68;3.05;;;;;;;12.25;100.00;100216.78;5560008;25;20001;-70
2024/04/15 11:17:58;;;;;;;12.45;3.15;;;;;;;12.26;100.00;100225.78;5547194;25;20011;-70
2024/04/15 11:20:47;;;;;;;15.07;3.47;;;;;;;12.45;100.00;100223.06;5521497;25;19997;-71
2024/04/15 11:23:35;;;;;;;10.73;2.67;;;;;;;12.23;100.00;100216.25;5600172;25;20003;-70
2024/04/15 11:26:24;;;;;;;14.10;2.90;;;;;;;12.05;100.00;100225.22;5552016;25;20328;-71
2024/04/15 11:29:13;;;;;;;10.63;2.53;;;;;;;11.79;100.00;100206.41;5451348;26;20013;-70
2024/04/15 11:32:02;;;;;;;10.70;2.53;;;;;;;11.57;100.00;100208.81;5524881;26;20472;-70
2024/04/15 11:34:50;;;;;;;12.18;3.03;;;;;;;11.45;100.00;100212.78;5505237;25;20009;-70
2024/04/15 11:37:38;;;;;;;14.40;2.80;;;;;;;11.40;100.00;100210.13;5534408;25;20484;-71
2024/04/15 11:40:27;;;;;;;11.27;3.03;;;;;;;11.36;100.00;100214.50;5560549;25;20042;-69
2024/04/15 11:43:15;;;;;;;9.55;3.42;;;;;;;11.44;100.00;100210.34;5536437;25;20000;-70
2024/04/15 11:46:04;;;;;;;11.15;2.88;;;;;;;11.69;100.00;100196.44;5533371;25;20000;-71
2024/04/15 11:48:53;;;;;;;8.45;2.80;;;;;;;11.75;100.00;100167.16;5600967;25;19995;-70
2024/04/15 11:51:47;;;;;;;6.72;2.70;;;;;;;11.69;100.00;100160.94;5521049;25;19996;-71
2024/04/15 11:54:37;;;;;;;10.93;2.70;;;;;;;11.73;100.00;100151.06;5573527;25;19996;-72
2024/04/15 11:57:25;;;;;;;8.55;2.78;;;;;;;11.68;100.00;100139.41;5562037;25;20347;-71
2024/04/15 12:00:14;;;;;;;11.13;3.10;;;;;;;11.91;100.00;100119.47;5574031;25;20067;-71
2024/04/15 12:03:02;;;;;;;10.32;2.75;;;;;;;11.91;100.00;100116.75;5571255;25;20467;-71
2024/04/15 12:05:53;;;;;;;9.32;2.95;;;;;;;11.92;100.00;100101.97;5533460;25;20011;-71
2024/04/15 12:08:42;;;;;;;14.30;2.55;;;;;;;11.96;100.00;100085.03;5537114;25;20449;-72
2024/04/15 12:11:30;;;;;;;8.45;2.90;;;;;;;11.85;100.00;100079.66;5488110;25;20007;-71
2024/04/15 12:14:19;;;;;;;11.93;3.47;;;;;;;12.11;100.00;100073.88;5517688;25;20001;-71
2024/04/15 12:17:08;;;;;;;10.85;2.85;;;;;;;12.05;100.00;100066.84;5554249;25;20001;-71
2024/04/15 12:19:57;;;;;;;8.35;2.80;;;;;;;12.13;100.00;100047.88;5554481;25;20008;-71
2024/04/15 12:22:45;;;;;;;12.60;2.92;;;;;;;12.01;100.00;100030.34;5539830;25;20007;-71
2024/04/15 12:25:34;;;;;;;11.32;2.60;;;;;;;11.96;100.00;100035.88;5593140;25;19996;-70
2024/04/15 12:28:22;;;;;;;10.50;2.80;;;;;;;12.19;100.00;100013.09;5503408;25;20012;-70
2024/04/15 12:31:12;;;;;;;9.88;2.80;;;;;;;12.06;100.00;100013.88;5518976;25;20009;-71
2024/04/15 12:34:00;;;;;;;13.18;3.10;;;;;;;11.89;100.00;100001.56;5537726;25;20325;-71
2024/04/15 12:36:48;;;;;;;8.90;2.50;;;;;;;11.90;100.00;99989.53;5561662;25;20321;-71
2024/04/15 12:39:36;;;;;;;8.13;2.53;;;;;;;11.97;100.00;99988.34;5476153;26;20342;-71
2024/04/15 12:42:24;;;;;;;10.52;2.90;;;;;;;11.90;100.00;99984.06;5451703;26;20450;-71
2024/04/15 12:45:12;;;;;;;10.40;2.95;;;;;;;11.80;100.00;99973.28;5516281;25;20072;-71
2024/04/15 12:48:01;;;;;;;7.10;2.67;;;;;;;11.76;100.00;99983.22;5488819;25;20092;-71
2024/04/15 12:50:53;;;;;;;7.00;2.60;;;;;;;11.60;100.00;99984.53;5536255;25;20064;-71
2024/04/15 12:53:41;;;;;;;8.63;2.60;;;;;;;11.58;100.00;99979.38;5534281;25;20011;-71
2024/04/15 12:56:29;;;;;;;8.35;2.80;;;;;;;11.70;100.00;99962.53;5561482;25;20041;-71